MET'MAP v2.0
soon released !

Expected late october,
this new version will be
more efficient, smarter,
and hosted on a brand new
server x3 powerfull...
...and still free !


Not compatible ?
Try the mobile version !

LOG IN : | Subscribe | Disclaimer | Who is Orbifly ? |
ICAO code :

TAF - LROD Oradea International Airport - 05 Jun 2020 06:07 UTC - Data Source NOAA   


- Airport Elevation : 465 ft
- IATA code : OMR
- No reported NOTAMs.


LROD - Oradea International Airport

Latest METAR recorded : 2015/08/11 08:00 LROD 110800Z 08005KT 040V140 CAVOK 32/08 Q1015
TAF TAF LROD
Valid from the 05 at 03:00 until the 05 at 12:00 UTC


050200Z 0503/0512 20012KT 9999 BKN040
TEMPO 0503/0507 5000 -SHRA SCT015 SCT035CB
TEMPO 0507/0512 19020G30KT

Source NOAA


MET'MAP, your aeronautical weather chart ! - Copyright ORBIFLY December 2007

Programming & Development : Alexandra Zaïnal
Co-Developer : Marc-Olivier Méhu
Technical & hardware support : Manuel Goepfert
Concept & Financing : Baudouin d'Aumeries